sensor_id;sensor_type;location;lat;lon;timestamp;P1;durP1;ratioP1;P2;durP2;ratioP2
70467;SDS011;57934;51.532;7.684;2023-02-28T00:00:28;6.25;;;3.53;;
70467;SDS011;57934;51.532;7.684;2023-02-28T00:02:54;5.97;;;3.33;;
70467;SDS011;57934;51.532;7.684;2023-02-28T00:05:21;7.15;;;3.65;;
70467;SDS011;57934;51.532;7.684;2023-02-28T00:07:48;5.68;;;3.35;;
70467;SDS011;57934;51.532;7.684;2023-02-28T00:10:18;4.85;;;3.45;;
70467;SDS011;57934;51.532;7.684;2023-02-28T00:12:47;3.65;;;3.15;;
70467;SDS011;57934;51.532;7.684;2023-02-28T00:15:13;4.93;;;3.22;;
70467;SDS011;57934;51.532;7.684;2023-02-28T00:17:39;5.20;;;3.40;;
70467;SDS011;57934;51.532;7.684;2023-02-28T00:20:06;5.68;;;3.47;;
70467;SDS011;57934;51.532;7.684;2023-02-28T00:22:43;7.65;;;4.03;;
70467;SDS011;57934;51.532;7.684;2023-02-28T00:25:12;5.88;;;4.07;;
70467;SDS011;57934;51.532;7.684;2023-02-28T00:27:40;9.10;;;4.95;;
70467;SDS011;57934;51.532;7.684;2023-02-28T00:30:07;8.98;;;4.20;;
70467;SDS011;57934;51.532;7.684;2023-02-28T00:32:36;5.75;;;3.45;;
70467;SDS011;57934;51.532;7.684;2023-02-28T00:35:03;6.32;;;3.40;;
70467;SDS011;57934;51.532;7.684;2023-02-28T00:37:29;4.80;;;3.45;;
70467;SDS011;57934;51.532;7.684;2023-02-28T00:39:55;7.22;;;3.70;;
70467;SDS011;57934;51.532;7.684;2023-02-28T00:42:22;7.47;;;3.92;;
70467;SDS011;57934;51.532;7.684;2023-02-28T00:44:48;7.00;;;3.85;;
70467;SDS011;57934;51.532;7.684;2023-02-28T00:47:14;9.48;;;4.38;;
70467;SDS011;57934;51.532;7.684;2023-02-28T00:49:40;3.92;;;3.47;;
70467;SDS011;57934;51.532;7.684;2023-02-28T00:52:06;6.15;;;3.40;;
70467;SDS011;57934;51.532;7.684;2023-02-28T00:54:32;9.02;;;4.10;;
70467;SDS011;57934;51.532;7.684;2023-02-28T00:56:58;9.88;;;3.78;;
70467;SDS011;57934;51.532;7.684;2023-02-28T00:59:24;5.90;;;3.58;;
70467;SDS011;57934;51.532;7.684;2023-02-28T01:01:50;4.75;;;3.35;;
70467;SDS011;57934;51.532;7.684;2023-02-28T01:04:16;8.25;;;4.70;;
70467;SDS011;57934;51.532;7.684;2023-02-28T01:06:42;6.90;;;3.60;;
70467;SDS011;57934;51.532;7.684;2023-02-28T01:09:09;5.80;;;3.38;;
70467;SDS011;57934;51.532;7.684;2023-02-28T01:11:36;6.10;;;3.78;;
70467;SDS011;57934;51.532;7.684;2023-02-28T01:14:03;5.05;;;3.60;;
70467;SDS011;57934;51.532;7.684;2023-02-28T01:16:29;5.15;;;3.42;;
70467;SDS011;57934;51.532;7.684;2023-02-28T01:18:56;5.63;;;4.25;;
70467;SDS011;57934;51.532;7.684;2023-02-28T01:21:22;7.13;;;3.53;;
70467;SDS011;57934;51.532;7.684;2023-02-28T01:23:49;9.05;;;4.03;;
70467;SDS011;57934;51.532;7.684;2023-02-28T01:26:19;6.78;;;3.40;;
70467;SDS011;57934;51.532;7.684;2023-02-28T01:28:48;7.00;;;3.40;;
70467;SDS011;57934;51.532;7.684;2023-02-28T01:31:15;7.32;;;3.80;;
70467;SDS011;57934;51.532;7.684;2023-02-28T01:33:41;7.85;;;4.18;;
70467;SDS011;57934;51.532;7.684;2023-02-28T01:36:12;6.38;;;3.75;;
70467;SDS011;57934;51.532;7.684;2023-02-28T01:38:39;7.75;;;4.03;;
70467;SDS011;57934;51.532;7.684;2023-02-28T01:41:06;6.68;;;4.30;;
70467;SDS011;57934;51.532;7.684;2023-02-28T01:46:08;9.40;;;4.28;;
70467;SDS011;57934;51.532;7.684;2023-02-28T01:48:36;5.95;;;3.85;;
70467;SDS011;57934;51.532;7.684;2023-02-28T01:51:08;4.85;;;3.90;;
70467;SDS011;57934;51.532;7.684;2023-02-28T01:53:47;6.18;;;4.30;;
70467;SDS011;57934;51.532;7.684;2023-02-28T01:56:21;7.03;;;4.30;;
70467;SDS011;57934;51.532;7.684;2023-02-28T01:58:51;7.97;;;4.68;;
70467;SDS011;57934;51.532;7.684;2023-02-28T02:01:18;7.50;;;4.10;;
70467;SDS011;57934;51.532;7.684;2023-02-28T02:03:53;6.03;;;4.07;;
70467;SDS011;57934;51.532;7.684;2023-02-28T02:06:25;4.38;;;3.80;;
70467;SDS011;57934;51.532;7.684;2023-02-28T02:08:54;8.05;;;4.05;;
70467;SDS011;57934;51.532;7.684;2023-02-28T02:11:21;7.47;;;4.32;;
70467;SDS011;57934;51.532;7.684;2023-02-28T02:21:59;6.05;;;4.00;;
70467;SDS011;57934;51.532;7.684;2023-02-28T02:28:04;6.43;;;3.88;;
70467;SDS011;57934;51.532;7.684;2023-02-28T02:33:27;15.20;;;8.48;;
70467;SDS011;57934;51.532;7.684;2023-02-28T02:41:46;12.02;;;4.72;;
70467;SDS011;57934;51.532;7.684;2023-02-28T02:44:20;7.80;;;4.45;;
70467;SDS011;57934;51.532;7.684;2023-02-28T02:46:51;6.60;;;3.95;;
70467;SDS011;57934;51.532;7.684;2023-02-28T02:49:33;6.57;;;3.97;;
70467;SDS011;57934;51.532;7.684;2023-02-28T02:52:04;6.47;;;4.10;;
70467;SDS011;57934;51.532;7.684;2023-02-28T02:54:34;7.15;;;3.95;;
70467;SDS011;57934;51.532;7.684;2023-02-28T02:57:05;6.53;;;4.18;;
70467;SDS011;57934;51.532;7.684;2023-02-28T02:59:35;7.15;;;4.70;;
70467;SDS011;57934;51.532;7.684;2023-02-28T03:02:05;7.25;;;4.80;;
70467;SDS011;57934;51.532;7.684;2023-02-28T03:04:36;8.38;;;4.22;;
70467;SDS011;57934;51.532;7.684;2023-02-28T03:07:07;8.82;;;4.32;;
70467;SDS011;57934;51.532;7.684;2023-02-28T03:09:33;8.65;;;4.93;;
70467;SDS011;57934;51.532;7.684;2023-02-28T03:12:01;7.00;;;4.32;;
70467;SDS011;57934;51.532;7.684;2023-02-28T03:17:29;6.75;;;4.03;;
70467;SDS011;57934;51.532;7.684;2023-02-28T03:20:32;7.38;;;4.10;;
70467;SDS011;57934;51.532;7.684;2023-02-28T03:26:19;9.57;;;4.47;;
70467;SDS011;57934;51.532;7.684;2023-02-28T03:28:54;6.18;;;4.10;;
70467;SDS011;57934;51.532;7.684;2023-02-28T03:31:39;10.20;;;4.15;;
70467;SDS011;57934;51.532;7.684;2023-02-28T03:34:21;4.30;;;3.90;;
70467;SDS011;57934;51.532;7.684;2023-02-28T03:36:53;6.28;;;4.10;;
70467;SDS011;57934;51.532;7.684;2023-02-28T03:39:45;9.70;;;4.32;;
70467;SDS011;57934;51.532;7.684;2023-02-28T03:42:13;7.22;;;4.68;;
70467;SDS011;57934;51.532;7.684;2023-02-28T03:47:52;9.70;;;4.20;;
70467;SDS011;57934;51.532;7.684;2023-02-28T03:50:37;4.78;;;3.47;;
70467;SDS011;57934;51.532;7.684;2023-02-28T03:53:10;5.65;;;3.47;;
70467;SDS011;57934;51.532;7.684;2023-02-28T03:55:44;5.82;;;3.70;;
70467;SDS011;57934;51.532;7.684;2023-02-28T04:01:05;8.05;;;3.75;;
70467;SDS011;57934;51.532;7.684;2023-02-28T04:03:35;7.82;;;3.55;;
70467;SDS011;57934;51.532;7.684;2023-02-28T04:06:03;4.82;;;3.97;;
70467;SDS011;57934;51.532;7.684;2023-02-28T04:08:31;6.05;;;3.90;;
70467;SDS011;57934;51.532;7.684;2023-02-28T04:10:59;5.68;;;4.32;;
70467;SDS011;57934;51.532;7.684;2023-02-28T04:13:29;7.13;;;4.60;;
70467;SDS011;57934;51.532;7.684;2023-02-28T04:15:55;7.70;;;4.43;;
70467;SDS011;57934;51.532;7.684;2023-02-28T04:18:21;7.30;;;4.47;;
70467;SDS011;57934;51.532;7.684;2023-02-28T04:20:47;5.93;;;4.25;;
70467;SDS011;57934;51.532;7.684;2023-02-28T04:23:13;8.57;;;4.57;;
70467;SDS011;57934;51.532;7.684;2023-02-28T04:25:39;6.55;;;4.22;;
70467;SDS011;57934;51.532;7.684;2023-02-28T04:28:06;6.78;;;4.60;;
70467;SDS011;57934;51.532;7.684;2023-02-28T04:30:32;7.40;;;4.57;;
70467;SDS011;57934;51.532;7.684;2023-02-28T04:32:58;9.38;;;4.72;;
70467;SDS011;57934;51.532;7.684;2023-02-28T04:35:25;9.05;;;4.97;;
70467;SDS011;57934;51.532;7.684;2023-02-28T04:37:51;11.00;;;4.88;;
70467;SDS011;57934;51.532;7.684;2023-02-28T04:40:17;10.55;;;5.00;;
70467;SDS011;57934;51.532;7.684;2023-02-28T04:42:43;10.80;;;4.80;;
70467;SDS011;57934;51.532;7.684;2023-02-28T04:45:09;7.68;;;4.90;;
70467;SDS011;57934;51.532;7.684;2023-02-28T04:47:36;9.50;;;5.03;;
70467;SDS011;57934;51.532;7.684;2023-02-28T04:50:02;7.30;;;5.15;;
70467;SDS011;57934;51.532;7.684;2023-02-28T04:52:29;12.23;;;5.10;;
70467;SDS011;57934;51.532;7.684;2023-02-28T04:54:55;10.48;;;5.03;;
70467;SDS011;57934;51.532;7.684;2023-02-28T04:57:21;10.70;;;6.75;;
70467;SDS011;57934;51.532;7.684;2023-02-28T04:59:47;8.98;;;5.60;;
70467;SDS011;57934;51.532;7.684;2023-02-28T05:02:13;9.82;;;5.25;;
70467;SDS011;57934;51.532;7.684;2023-02-28T05:04:39;10.90;;;5.40;;
70467;SDS011;57934;51.532;7.684;2023-02-28T05:07:05;10.27;;;5.18;;
70467;SDS011;57934;51.532;7.684;2023-02-28T05:09:31;8.90;;;5.18;;
70467;SDS011;57934;51.532;7.684;2023-02-28T05:11:58;13.45;;;5.38;;
70467;SDS011;57934;51.532;7.684;2023-02-28T05:14:24;8.48;;;5.38;;
70467;SDS011;57934;51.532;7.684;2023-02-28T05:16:51;8.95;;;5.00;;
70467;SDS011;57934;51.532;7.684;2023-02-28T05:19:17;8.13;;;5.93;;
70467;SDS011;57934;51.532;7.684;2023-02-28T05:21:49;9.52;;;5.30;;
70467;SDS011;57934;51.532;7.684;2023-02-28T05:24:18;9.80;;;5.30;;
70467;SDS011;57934;51.532;7.684;2023-02-28T05:26:53;11.77;;;5.55;;
70467;SDS011;57934;51.532;7.684;2023-02-28T05:29:20;9.93;;;5.55;;
70467;SDS011;57934;51.532;7.684;2023-02-28T05:31:47;8.98;;;5.65;;
70467;SDS011;57934;51.532;7.684;2023-02-28T05:34:13;7.95;;;5.18;;
70467;SDS011;57934;51.532;7.684;2023-02-28T05:36:41;7.78;;;5.00;;
70467;SDS011;57934;51.532;7.684;2023-02-28T05:39:07;10.77;;;5.38;;
70467;SDS011;57934;51.532;7.684;2023-02-28T05:41:38;9.48;;;5.05;;
70467;SDS011;57934;51.532;7.684;2023-02-28T05:44:06;7.80;;;5.03;;
70467;SDS011;57934;51.532;7.684;2023-02-28T05:46:32;8.05;;;5.00;;
70467;SDS011;57934;51.532;7.684;2023-02-28T05:48:58;7.43;;;5.30;;
70467;SDS011;57934;51.532;7.684;2023-02-28T05:51:25;7.28;;;4.85;;
70467;SDS011;57934;51.532;7.684;2023-02-28T05:53:51;8.68;;;4.20;;
70467;SDS011;57934;51.532;7.684;2023-02-28T05:56:17;8.35;;;4.43;;
70467;SDS011;57934;51.532;7.684;2023-02-28T05:58:43;9.35;;;5.90;;
70467;SDS011;57934;51.532;7.684;2023-02-28T06:04:14;9.15;;;5.68;;
70467;SDS011;57934;51.532;7.684;2023-02-28T06:06:43;8.45;;;4.95;;
70467;SDS011;57934;51.532;7.684;2023-02-28T06:09:13;9.27;;;5.60;;
70467;SDS011;57934;51.532;7.684;2023-02-28T06:11:39;7.93;;;4.97;;
70467;SDS011;57934;51.532;7.684;2023-02-28T06:14:05;7.75;;;4.60;;
70467;SDS011;57934;51.532;7.684;2023-02-28T06:16:33;7.45;;;5.43;;
70467;SDS011;57934;51.532;7.684;2023-02-28T06:19:01;12.65;;;5.75;;
70467;SDS011;57934;51.532;7.684;2023-02-28T06:21:29;8.40;;;5.45;;
70467;SDS011;57934;51.532;7.684;2023-02-28T06:23:56;10.75;;;5.53;;
70467;SDS011;57934;51.532;7.684;2023-02-28T06:26:23;9.68;;;5.30;;
70467;SDS011;57934;51.532;7.684;2023-02-28T06:28:50;9.60;;;6.65;;
70467;SDS011;57934;51.532;7.684;2023-02-28T06:31:16;11.68;;;6.05;;
70467;SDS011;57934;51.532;7.684;2023-02-28T06:33:43;11.23;;;5.97;;
70467;SDS011;57934;51.532;7.684;2023-02-28T06:36:11;9.77;;;6.88;;
70467;SDS011;57934;51.532;7.684;2023-02-28T06:38:38;10.75;;;5.97;;
70467;SDS011;57934;51.532;7.684;2023-02-28T06:41:05;10.90;;;6.22;;
70467;SDS011;57934;51.532;7.684;2023-02-28T06:43:32;10.85;;;6.00;;
70467;SDS011;57934;51.532;7.684;2023-02-28T06:46:02;9.15;;;6.32;;
70467;SDS011;57934;51.532;7.684;2023-02-28T06:48:30;12.48;;;5.90;;
70467;SDS011;57934;51.532;7.684;2023-02-28T06:51:07;9.27;;;5.47;;
70467;SDS011;57934;51.532;7.684;2023-02-28T06:53:35;12.00;;;6.03;;
70467;SDS011;57934;51.532;7.684;2023-02-28T06:56:05;11.75;;;6.03;;
70467;SDS011;57934;51.532;7.684;2023-02-28T06:58:33;8.25;;;5.55;;
70467;SDS011;57934;51.532;7.684;2023-02-28T07:00:59;11.27;;;5.85;;
70467;SDS011;57934;51.532;7.684;2023-02-28T07:03:26;7.47;;;5.28;;
70467;SDS011;57934;51.532;7.684;2023-02-28T07:05:52;13.85;;;5.28;;
70467;SDS011;57934;51.532;7.684;2023-02-28T07:08:18;7.75;;;4.90;;
70467;SDS011;57934;51.532;7.684;2023-02-28T07:10:44;11.70;;;5.68;;
70467;SDS011;57934;51.532;7.684;2023-02-28T07:13:10;7.80;;;4.90;;
70467;SDS011;57934;51.532;7.684;2023-02-28T07:15:36;6.45;;;4.68;;
70467;SDS011;57934;51.532;7.684;2023-02-28T07:18:03;8.75;;;4.85;;
70467;SDS011;57934;51.532;7.684;2023-02-28T07:20:29;8.90;;;4.85;;
70467;SDS011;57934;51.532;7.684;2023-02-28T07:22:56;9.57;;;4.57;;
70467;SDS011;57934;51.532;7.684;2023-02-28T07:25:23;7.45;;;4.65;;
70467;SDS011;57934;51.532;7.684;2023-02-28T07:27:50;11.07;;;4.55;;
70467;SDS011;57934;51.532;7.684;2023-02-28T07:30:16;9.60;;;4.00;;
70467;SDS011;57934;51.532;7.684;2023-02-28T07:32:42;7.50;;;3.83;;
70467;SDS011;57934;51.532;7.684;2023-02-28T07:35:08;7.13;;;3.83;;
70467;SDS011;57934;51.532;7.684;2023-02-28T07:37:34;7.53;;;3.50;;
70467;SDS011;57934;51.532;7.684;2023-02-28T07:40:04;4.72;;;3.30;;
70467;SDS011;57934;51.532;7.684;2023-02-28T07:42:35;5.70;;;3.25;;
70467;SDS011;57934;51.532;7.684;2023-02-28T07:45:04;5.15;;;3.05;;
70467;SDS011;57934;51.532;7.684;2023-02-28T07:47:30;4.18;;;3.22;;
70467;SDS011;57934;51.532;7.684;2023-02-28T07:49:57;6.50;;;3.08;;
70467;SDS011;57934;51.532;7.684;2023-02-28T07:52:23;5.20;;;3.28;;
70467;SDS011;57934;51.532;7.684;2023-02-28T07:54:50;5.57;;;3.08;;
70467;SDS011;57934;51.532;7.684;2023-02-28T07:57:17;5.60;;;3.58;;
70467;SDS011;57934;51.532;7.684;2023-02-28T07:59:43;4.90;;;2.88;;
70467;SDS011;57934;51.532;7.684;2023-02-28T08:02:16;5.25;;;2.83;;
70467;SDS011;57934;51.532;7.684;2023-02-28T08:04:44;5.13;;;2.33;;
70467;SDS011;57934;51.532;7.684;2023-02-28T08:07:12;5.78;;;2.30;;
70467;SDS011;57934;51.532;7.684;2023-02-28T08:09:41;3.55;;;2.47;;
70467;SDS011;57934;51.532;7.684;2023-02-28T08:12:07;3.05;;;2.30;;
70467;SDS011;57934;51.532;7.684;2023-02-28T08:14:34;4.78;;;2.47;;
70467;SDS011;57934;51.532;7.684;2023-02-28T08:17:00;6.07;;;2.20;;
70467;SDS011;57934;51.532;7.684;2023-02-28T08:19:26;5.43;;;2.22;;
70467;SDS011;57934;51.532;7.684;2023-02-28T08:21:52;4.20;;;2.47;;
70467;SDS011;57934;51.532;7.684;2023-02-28T08:24:18;4.00;;;2.78;;
70467;SDS011;57934;51.532;7.684;2023-02-28T08:26:44;5.53;;;2.55;;
70467;SDS011;57934;51.532;7.684;2023-02-28T08:29:10;6.15;;;3.17;;
70467;SDS011;57934;51.532;7.684;2023-02-28T08:31:36;2.70;;;2.50;;
70467;SDS011;57934;51.532;7.684;2023-02-28T08:34:06;3.33;;;2.50;;
70467;SDS011;57934;51.532;7.684;2023-02-28T08:36:33;5.30;;;2.42;;
70467;SDS011;57934;51.532;7.684;2023-02-28T08:38:59;4.60;;;2.42;;
70467;SDS011;57934;51.532;7.684;2023-02-28T08:41:25;5.10;;;2.80;;
70467;SDS011;57934;51.532;7.684;2023-02-28T08:43:51;4.10;;;2.33;;
70467;SDS011;57934;51.532;7.684;2023-02-28T08:46:17;4.40;;;2.45;;
70467;SDS011;57934;51.532;7.684;2023-02-28T08:48:43;4.18;;;2.72;;
70467;SDS011;57934;51.532;7.684;2023-02-28T08:51:11;2.47;;;2.28;;
70467;SDS011;57934;51.532;7.684;2023-02-28T08:53:40;3.47;;;2.40;;
70467;SDS011;57934;51.532;7.684;2023-02-28T08:56:07;3.20;;;2.72;;
70467;SDS011;57934;51.532;7.684;2023-02-28T08:58:35;5.05;;;2.65;;
70467;SDS011;57934;51.532;7.684;2023-02-28T09:01:12;6.07;;;2.53;;
70467;SDS011;57934;51.532;7.684;2023-02-28T09:03:40;3.80;;;2.80;;
70467;SDS011;57934;51.532;7.684;2023-02-28T09:06:07;6.53;;;3.00;;
70467;SDS011;57934;51.532;7.684;2023-02-28T09:08:34;4.15;;;2.85;;
70467;SDS011;57934;51.532;7.684;2023-02-28T09:11:01;3.80;;;2.78;;
70467;SDS011;57934;51.532;7.684;2023-02-28T09:13:28;10.68;;;3.03;;
70467;SDS011;57934;51.532;7.684;2023-02-28T09:15:56;6.63;;;2.75;;
70467;SDS011;57934;51.532;7.684;2023-02-28T09:18:23;4.07;;;2.70;;
70467;SDS011;57934;51.532;7.684;2023-02-28T09:20:49;9.02;;;2.72;;
70467;SDS011;57934;51.532;7.684;2023-02-28T09:23:15;3.42;;;2.13;;
70467;SDS011;57934;51.532;7.684;2023-02-28T09:25:45;2.70;;;2.30;;
70467;SDS011;57934;51.532;7.684;2023-02-28T09:28:16;2.63;;;2.38;;
70467;SDS011;57934;51.532;7.684;2023-02-28T09:30:47;3.45;;;2.58;;
70467;SDS011;57934;51.532;7.684;2023-02-28T09:33:16;7.40;;;2.53;;
70467;SDS011;57934;51.532;7.684;2023-02-28T09:35:46;3.13;;;2.28;;
70467;SDS011;57934;51.532;7.684;2023-02-28T09:38:13;2.35;;;2.00;;
70467;SDS011;57934;51.532;7.684;2023-02-28T09:40:45;3.03;;;2.35;;
70467;SDS011;57934;51.532;7.684;2023-02-28T09:43:15;5.95;;;2.30;;
70467;SDS011;57934;51.532;7.684;2023-02-28T09:45:46;2.58;;;2.17;;
70467;SDS011;57934;51.532;7.684;2023-02-28T09:48:24;3.80;;;2.57;;
70467;SDS011;57934;51.532;7.684;2023-02-28T09:51:02;2.97;;;2.00;;
70467;SDS011;57934;51.532;7.684;2023-02-28T09:53:31;3.17;;;2.25;;
70467;SDS011;57934;51.532;7.684;2023-02-28T09:56:04;3.92;;;2.30;;
70467;SDS011;57934;51.532;7.684;2023-02-28T09:58:47;6.38;;;2.20;;
70467;SDS011;57934;51.532;7.684;2023-02-28T10:06:50;5.45;;;2.03;;
70467;SDS011;57934;51.532;7.684;2023-02-28T10:09:18;3.67;;;1.92;;
70467;SDS011;57934;51.532;7.684;2023-02-28T10:11:52;3.42;;;2.00;;
70467;SDS011;57934;51.532;7.684;2023-02-28T10:14:23;6.05;;;2.47;;
70467;SDS011;57934;51.532;7.684;2023-02-28T10:16:52;4.05;;;2.13;;
70467;SDS011;57934;51.532;7.684;2023-02-28T10:19:35;2.45;;;1.80;;
70467;SDS011;57934;51.532;7.684;2023-02-28T10:24:59;7.70;;;2.30;;
70467;SDS011;57934;51.532;7.684;2023-02-28T10:27:29;2.22;;;2.03;;
70467;SDS011;57934;51.532;7.684;2023-02-28T10:29:57;2.83;;;1.80;;
70467;SDS011;57934;51.532;7.684;2023-02-28T10:32:25;2.97;;;2.05;;
70467;SDS011;57934;51.532;7.684;2023-02-28T10:34:59;4.05;;;2.15;;
70467;SDS011;57934;51.532;7.684;2023-02-28T10:37:27;6.20;;;2.17;;
70467;SDS011;57934;51.532;7.684;2023-02-28T10:39:53;3.97;;;2.03;;
70467;SDS011;57934;51.532;7.684;2023-02-28T10:42:21;3.85;;;2.00;;
70467;SDS011;57934;51.532;7.684;2023-02-28T10:45:10;3.28;;;2.10;;
70467;SDS011;57934;51.532;7.684;2023-02-28T10:47:41;2.40;;;1.77;;
70467;SDS011;57934;51.532;7.684;2023-02-28T10:50:26;5.45;;;2.05;;
70467;SDS011;57934;51.532;7.684;2023-02-28T10:53:07;5.18;;;2.33;;
70467;SDS011;57934;51.532;7.684;2023-02-28T11:03:56;4.28;;;1.95;;
70467;SDS011;57934;51.532;7.684;2023-02-28T11:06:23;2.00;;;1.55;;
70467;SDS011;57934;51.532;7.684;2023-02-28T11:08:53;3.50;;;1.60;;
70467;SDS011;57934;51.532;7.684;2023-02-28T11:11:21;5.05;;;1.95;;
70467;SDS011;57934;51.532;7.684;2023-02-28T11:13:51;2.45;;;1.77;;
70467;SDS011;57934;51.532;7.684;2023-02-28T11:16:20;3.13;;;2.03;;
70467;SDS011;57934;51.532;7.684;2023-02-28T11:18:54;2.28;;;1.65;;
70467;SDS011;57934;51.532;7.684;2023-02-28T11:21:22;3.72;;;1.85;;
70467;SDS011;57934;51.532;7.684;2023-02-28T11:24:02;3.67;;;2.00;;
70467;SDS011;57934;51.532;7.684;2023-02-28T11:26:39;2.72;;;1.70;;
70467;SDS011;57934;51.532;7.684;2023-02-28T11:29:12;6.13;;;3.03;;
70467;SDS011;57934;51.532;7.684;2023-02-28T11:31:40;2.83;;;2.00;;
70467;SDS011;57934;51.532;7.684;2023-02-28T11:34:21;3.75;;;2.35;;
70467;SDS011;57934;51.532;7.684;2023-02-28T11:36:50;3.83;;;2.10;;
70467;SDS011;57934;51.532;7.684;2023-02-28T11:39:18;5.10;;;3.25;;
70467;SDS011;57934;51.532;7.684;2023-02-28T11:50:16;7.78;;;2.45;;
70467;SDS011;57934;51.532;7.684;2023-02-28T11:52:53;3.70;;;1.75;;
70467;SDS011;57934;51.532;7.684;2023-02-28T12:01:01;2.40;;;1.90;;
70467;SDS011;57934;51.532;7.684;2023-02-28T12:20:57;2.83;;;2.03;;
70467;SDS011;57934;51.532;7.684;2023-02-28T12:26:39;2.45;;;2.22;;
70467;SDS011;57934;51.532;7.684;2023-02-28T12:32:01;2.42;;;2.17;;
70467;SDS011;57934;51.532;7.684;2023-02-28T12:34:33;5.82;;;2.97;;
70467;SDS011;57934;51.532;7.684;2023-02-28T12:37:07;3.28;;;2.08;;
70467;SDS011;57934;51.532;7.684;2023-02-28T12:39:41;2.38;;;2.20;;
70467;SDS011;57934;51.532;7.684;2023-02-28T12:42:25;3.08;;;2.45;;
70467;SDS011;57934;51.532;7.684;2023-02-28T12:44:55;5.82;;;2.72;;
70467;SDS011;57934;51.532;7.684;2023-02-28T12:47:25;4.82;;;2.58;;
70467;SDS011;57934;51.532;7.684;2023-02-28T12:49:52;3.28;;;2.53;;
70467;SDS011;57934;51.532;7.684;2023-02-28T12:55:14;4.72;;;2.78;;
70467;SDS011;57934;51.532;7.684;2023-02-28T12:57:49;3.33;;;2.20;;
70467;SDS011;57934;51.532;7.684;2023-02-28T13:00:29;6.20;;;3.15;;
70467;SDS011;57934;51.532;7.684;2023-02-28T13:03:20;6.15;;;2.97;;
70467;SDS011;57934;51.532;7.684;2023-02-28T13:06:07;7.00;;;2.63;;
70467;SDS011;57934;51.532;7.684;2023-02-28T13:11:52;4.82;;;2.75;;
70467;SDS011;57934;51.532;7.684;2023-02-28T13:19:25;6.63;;;2.60;;
70467;SDS011;57934;51.532;7.684;2023-02-28T13:21:53;5.90;;;3.03;;
70467;SDS011;57934;51.532;7.684;2023-02-28T13:24:55;5.07;;;2.97;;
70467;SDS011;57934;51.532;7.684;2023-02-28T13:27:22;4.22;;;3.17;;
70467;SDS011;57934;51.532;7.684;2023-02-28T13:29:59;6.75;;;2.88;;
70467;SDS011;57934;51.532;7.684;2023-02-28T13:45:19;2.85;;;2.55;;
70467;SDS011;57934;51.532;7.684;2023-02-28T13:48:29;3.30;;;2.88;;
70467;SDS011;57934;51.532;7.684;2023-02-28T13:50:55;4.32;;;2.80;;
70467;SDS011;57934;51.532;7.684;2023-02-28T13:53:47;3.45;;;3.03;;
70467;SDS011;57934;51.532;7.684;2023-02-28T13:59:26;4.40;;;2.95;;
70467;SDS011;57934;51.532;7.684;2023-02-28T14:03:00;5.10;;;3.05;;
70467;SDS011;57934;51.532;7.684;2023-02-28T14:05:18;7.68;;;3.00;;
70467;SDS011;57934;51.532;7.684;2023-02-28T14:07:54;4.70;;;3.20;;
70467;SDS011;57934;51.532;7.684;2023-02-28T14:10:27;6.57;;;3.17;;
70467;SDS011;57934;51.532;7.684;2023-02-28T14:18:13;4.68;;;3.30;;
70467;SDS011;57934;51.532;7.684;2023-02-28T14:20:46;4.85;;;3.17;;
70467;SDS011;57934;51.532;7.684;2023-02-28T14:23:16;2.92;;;2.72;;
70467;SDS011;57934;51.532;7.684;2023-02-28T14:29:08;4.72;;;3.30;;
70467;SDS011;57934;51.532;7.684;2023-02-28T14:34:45;5.13;;;3.20;;
70467;SDS011;57934;51.532;7.684;2023-02-28T14:37:26;6.05;;;2.90;;
70467;SDS011;57934;51.532;7.684;2023-02-28T14:39:54;6.05;;;3.10;;
70467;SDS011;57934;51.532;7.684;2023-02-28T14:42:27;5.53;;;3.30;;
70467;SDS011;57934;51.532;7.684;2023-02-28T14:44:55;7.05;;;3.30;;
70467;SDS011;57934;51.532;7.684;2023-02-28T14:47:30;7.63;;;4.72;;
70467;SDS011;57934;51.532;7.684;2023-02-28T14:49:58;6.95;;;4.05;;
70467;SDS011;57934;51.532;7.684;2023-02-28T14:52:27;4.95;;;3.33;;
70467;SDS011;57934;51.532;7.684;2023-02-28T14:55:01;4.75;;;3.03;;
70467;SDS011;57934;51.532;7.684;2023-02-28T14:57:34;4.07;;;3.55;;
70467;SDS011;57934;51.532;7.684;2023-02-28T15:00:21;3.80;;;2.97;;
70467;SDS011;57934;51.532;7.684;2023-02-28T15:02:52;4.18;;;3.03;;
70467;SDS011;57934;51.532;7.684;2023-02-28T15:05:30;3.47;;;3.17;;
70467;SDS011;57934;51.532;7.684;2023-02-28T15:10:30;3.58;;;3.28;;
70467;SDS011;57934;51.532;7.684;2023-02-28T15:13:01;5.85;;;3.05;;
70467;SDS011;57934;51.532;7.684;2023-02-28T15:15:44;4.10;;;2.90;;
70467;SDS011;57934;51.532;7.684;2023-02-28T15:18:26;8.43;;;2.80;;
70467;SDS011;57934;51.532;7.684;2023-02-28T15:20:57;3.42;;;2.47;;
70467;SDS011;57934;51.532;7.684;2023-02-28T15:23:27;3.95;;;2.95;;
70467;SDS011;57934;51.532;7.684;2023-02-28T15:25:54;3.22;;;2.92;;
70467;SDS011;57934;51.532;7.684;2023-02-28T15:28:21;5.32;;;3.05;;
70467;SDS011;57934;51.532;7.684;2023-02-28T15:30:59;5.93;;;3.05;;
70467;SDS011;57934;51.532;7.684;2023-02-28T15:33:28;3.83;;;2.75;;
70467;SDS011;57934;51.532;7.684;2023-02-28T15:36:13;4.05;;;2.85;;
70467;SDS011;57934;51.532;7.684;2023-02-28T15:38:43;6.60;;;2.97;;
70467;SDS011;57934;51.532;7.684;2023-02-28T15:41:24;4.72;;;3.35;;
70467;SDS011;57934;51.532;7.684;2023-02-28T15:44:13;4.03;;;3.28;;
70467;SDS011;57934;51.532;7.684;2023-02-28T15:46:43;6.18;;;2.42;;
70467;SDS011;57934;51.532;7.684;2023-02-28T15:49:19;4.05;;;2.60;;
70467;SDS011;57934;51.532;7.684;2023-02-28T15:51:48;4.13;;;2.85;;
70467;SDS011;57934;51.532;7.684;2023-02-28T15:54:24;3.65;;;2.72;;
70467;SDS011;57934;51.532;7.684;2023-02-28T15:56:58;3.33;;;2.90;;
70467;SDS011;57934;51.532;7.684;2023-02-28T15:59:30;5.22;;;3.17;;
70467;SDS011;57934;51.532;7.684;2023-02-28T16:02:04;3.17;;;2.65;;
70467;SDS011;57934;51.532;7.684;2023-02-28T16:07:27;5.78;;;3.00;;
70467;SDS011;57934;51.532;7.684;2023-02-28T16:09:54;4.13;;;3.00;;
70467;SDS011;57934;51.532;7.684;2023-02-28T16:12:21;4.05;;;3.05;;
70467;SDS011;57934;51.532;7.684;2023-02-28T16:14:52;4.22;;;3.10;;
70467;SDS011;57934;51.532;7.684;2023-02-28T16:17:22;6.22;;;2.88;;
70467;SDS011;57934;51.532;7.684;2023-02-28T16:19:51;4.35;;;3.20;;
70467;SDS011;57934;51.532;7.684;2023-02-28T16:22:17;3.97;;;3.03;;
70467;SDS011;57934;51.532;7.684;2023-02-28T16:24:43;4.45;;;3.30;;
70467;SDS011;57934;51.532;7.684;2023-02-28T16:27:20;3.90;;;3.13;;
70467;SDS011;57934;51.532;7.684;2023-02-28T16:29:53;3.72;;;3.03;;
70467;SDS011;57934;51.532;7.684;2023-02-28T16:32:19;5.50;;;2.97;;
70467;SDS011;57934;51.532;7.684;2023-02-28T16:34:45;4.70;;;3.10;;
70467;SDS011;57934;51.532;7.684;2023-02-28T16:37:12;6.57;;;3.38;;
70467;SDS011;57934;51.532;7.684;2023-02-28T16:39:40;5.15;;;2.90;;
70467;SDS011;57934;51.532;7.684;2023-02-28T16:42:08;5.45;;;2.88;;
70467;SDS011;57934;51.532;7.684;2023-02-28T16:44:48;3.88;;;3.03;;
70467;SDS011;57934;51.532;7.684;2023-02-28T16:47:14;5.60;;;2.80;;
70467;SDS011;57934;51.532;7.684;2023-02-28T16:49:40;3.60;;;3.03;;
70467;SDS011;57934;51.532;7.684;2023-02-28T16:52:08;3.97;;;3.15;;
70467;SDS011;57934;51.532;7.684;2023-02-28T16:54:40;5.40;;;3.10;;
70467;SDS011;57934;51.532;7.684;2023-02-28T16:57:08;4.50;;;3.30;;
70467;SDS011;57934;51.532;7.684;2023-02-28T16:59:43;7.95;;;3.45;;
70467;SDS011;57934;51.532;7.684;2023-02-28T17:02:16;5.97;;;3.17;;
70467;SDS011;57934;51.532;7.684;2023-02-28T17:04:45;4.03;;;3.03;;
70467;SDS011;57934;51.532;7.684;2023-02-28T17:07:12;6.10;;;3.35;;
70467;SDS011;57934;51.532;7.684;2023-02-28T17:09:41;5.35;;;3.15;;
70467;SDS011;57934;51.532;7.684;2023-02-28T17:12:08;5.47;;;3.47;;
70467;SDS011;57934;51.532;7.684;2023-02-28T17:14:34;5.28;;;3.72;;
70467;SDS011;57934;51.532;7.684;2023-02-28T17:17:01;6.45;;;3.08;;
70467;SDS011;57934;51.532;7.684;2023-02-28T17:19:26;4.43;;;3.30;;